Search for airport 
image banner adimage banner adimage banner ad
image banner ad

CL40 - Antelope Valley Service Center

Located in Lancaster, United States

ICAO - CL40, IATA -

Data provided by Airmate  

General information

Coordinates: N34°38'53" W118°8'43"
Elevation is 2522 feet MSL.
Magnetic variation is 14° East
View others Airports in California

Operational data

Special qualification required
Current time UTC:
Current local time:
Weather at : KPMD - Palmdale Usaf Plant 42 ( 6 km )
METAR: KPMD 260953Z AUTO 20010KT 10SM CLR 21/08 A2999 RMK AO2 SLP127 T02060083
TAF: KPMD 260559Z 2606/2706 21008KT P6SM FEW120 FM261600 VRB03KT P6SM SKC FM262200 24015G25KT P6SM SKC
View NOTAMs / SUP AIP / TFR affecting this airport [VIEW]
Communications frequencies: [VIEW]

Runways:

Airport contact information

Address: Lancaster United States

Satellite view of CL40